Houston, Texas
Traffic Map
Current Weather Conditions
Houston, Texas
Overcast
Overcast
23°
Feels Like: 23°
Wind Chill: 23° Ceiling: 1100
Heat Index: 23° Visibility: 9mi
Dew Point: 21° Wind: 12mph
Humidity: 87% Direction: 150° (SSE)
Pressure: 29.96in Gusts: 0mph
Raw Report DataKIAH 280253Z 15010KT 9SM BKN011 OVC017 23/21 A2996 RMK AO2 SLP145 T02280206 53012
Traffic Incident Summary
Active as of:
Severity:
Category:
InformationThere was an issue retrieving the traffic information for this location. Please try a different location or try again shortly.
Advertisements
Track Severe Weather on mobile